Time;durP1;ratioP1;P1;durP2;ratioP2;P2;SDS_P1;SDS_P2;PMS_P1;PMS_P2;Temp;Humidity;BMP_temperature;BMP_pressure;BME280_temperature;BME280_humidity;BME280_pressure;Samples;Min_cycle;Max_cycle;Signal;HPM_P1;HPM_P2
2023/10/03 00:01:37;;;;;;;;;;;;;;;;;;5112720;28;19911;-57
2023/10/03 00:04:03;;;;;;;;;;;;;;;;;;5113895;28;19915;-59
2023/10/03 00:06:28;;;;;;;;;;;;;;;;;;5114031;28;19912;-59
2023/10/03 00:08:54;;;;;;;;;;;;;;;;;;5113681;28;19923;-57
2023/10/03 00:11:19;;;;;;;;;;;;;;;;;;5113209;28;19938;-59
2023/10/03 00:13:44;;;;;;;;;;;;;;;;;;5113734;28;20388;-59
2023/10/03 00:16:10;;;;;;;;;;;;;;;;;;5113522;28;19911;-58
2023/10/03 00:18:35;;;;;;;;;;;;;;;;;;5113656;28;19923;-57
2023/10/03 00:21:01;;;;;;;;;;;;;;;;;;5112354;28;19912;-58
2023/10/03 00:23:26;;;;;;;;;;;;;;;;;;5114057;28;19918;-58
2023/10/03 00:25:54;;;;;;;;;;;;;;;;;;5113480;28;19939;-59
2023/10/03 00:28:19;;;;;;;;;;;;;;;;;;5112705;28;19919;-59
2023/10/03 00:30:45;;;;;;;;;;;;;;;;;;5091886;28;19961;-60
2023/10/03 00:33:12;;;;;;;;;;;;;;;;;;5093333;28;19920;-57
2023/10/03 00:35:37;;;;;;;;;;;;;;;;;;5091736;28;19915;-56
2023/10/03 00:38:09;;;;;;;;;;;;;;;;;;5093334;28;20308;-57
2023/10/03 00:40:35;;;;;;;;;;;;;;;;;;5092943;28;20424;-59
2023/10/03 00:43:01;;;;;;;;;;;;;;;;;;5092297;28;19919;-59
2023/10/03 00:45:27;;;;;;;;;;;;;;;;;;5074751;28;19912;-60
2023/10/03 00:47:56;;;;;;;;;;;;;;;;;;5093157;28;19965;-58
2023/10/03 00:50:23;;;;;;;;;;;;;;;;;;5074566;28;19935;-58
2023/10/03 00:52:50;;;;;;;;;;;;;;;;;;5092940;28;19926;-59
2023/10/03 00:55:15;;;;;;;;;;;;;;;;;;5092540;28;20015;-60
2023/10/03 00:57:42;;;;;;;;;;;;;;;;;;5091423;28;20014;-59
2023/10/03 01:00:16;;;;;;;;;;;;;;;;;;5091057;28;20338;-59
2023/10/03 01:02:41;;;;;;;;;;;;;;;;;;5091356;28;19912;-59
2023/10/03 01:05:14;;;;;;;;;;;;;;;;;;5092428;28;20007;-60
2023/10/03 01:07:39;;;;;;;;;;;;;;;;;;5092646;28;19916;-59
2023/10/03 01:10:05;;;;;;;;;;;;;;;;;;5092431;28;19966;-58
2023/10/03 01:12:31;;;;;;;;;;;;;;;;;;5092199;28;19924;-59
2023/10/03 01:14:56;;;;;;;;;;;;;;;;;;5092498;28;19938;-60
2023/10/03 01:17:23;;;;;;;;;;;;;;;;;;5090865;28;20514;-59
2023/10/03 01:19:48;;;;;;;;;;;;;;;;;;5091881;28;19915;-59
2023/10/03 01:22:15;;;;;;;;;;;;;;;;;;5073827;28;19916;-59
2023/10/03 01:24:41;;;;;;;;;;;;;;;;;;5091959;28;20364;-59
2023/10/03 01:27:06;;;;;;;;;;;;;;;;;;5099025;28;19915;-59
2023/10/03 01:29:32;;;;;;;;;;;;;;;;;;5112588;28;19950;-59
2023/10/03 01:31:58;;;;;;;;;;;;;;;;;;5112463;28;19919;-58
2023/10/03 01:34:24;;;;;;;;;;;;;;;;;;5112253;28;19915;-59
2023/10/03 01:36:49;;;;;;;;;;;;;;;;;;5111033;28;19919;-59
2023/10/03 01:39:14;;;;;;;;;;;;;;;;;;5112242;28;19923;-59
2023/10/03 01:41:40;;;;;;;;;;;;;;;;;;5111644;28;19916;-58
2023/10/03 01:44:06;;;;;;;;;;;;;;;;;;5111938;28;19958;-58
2023/10/03 01:46:32;;;;;;;;;;;;;;;;;;5110766;28;20248;-59
2023/10/03 01:48:57;;;;;;;;;;;;;;;;;;5112463;28;20002;-59
2023/10/03 01:51:23;;;;;;;;;;;;;;;;;;5093784;28;19955;-58
2023/10/03 01:53:48;;;;;;;;;;;;;;;;;;5110768;28;20340;-59
2023/10/03 01:56:14;;;;;;;;;;;;;;;;;;5110738;28;20323;-59
2023/10/03 01:58:39;;;;;;;;;;;;;;;;;;5110709;28;19923;-60
2023/10/03 02:01:05;;;;;;;;;;;;;;;;;;5110679;28;19919;-58
2023/10/03 02:03:32;;;;;;;;;;;;;;;;;;5110297;28;19915;-58
2023/10/03 02:05:58;;;;;;;;;;;;;;;;;;5112096;28;19947;-59
2023/10/03 02:08:25;;;;;;;;;;;;;;;;;;5110731;28;19947;-58
2023/10/03 02:10:50;;;;;;;;;;;;;;;;;;5112220;28;19919;-58
2023/10/03 02:13:17;;;;;;;;;;;;;;;;;;5112263;28;19979;-58
2023/10/03 02:15:42;;;;;;;;;;;;;;;;;;5093659;28;19972;-59
2023/10/03 02:18:14;;;;;;;;;;;;;;;;;;5110753;28;20404;-59
2023/10/03 02:20:47;;;;;;;;;;;;;;;;;;5112113;28;19919;-58
2023/10/03 02:23:17;;;;;;;;;;;;;;;;;;5112325;28;20296;-58
2023/10/03 02:25:43;;;;;;;;;;;;;;;;;;5093621;28;19947;-58
2023/10/03 02:28:08;;;;;;;;;;;;;;;;;;5093613;28;19954;-57
2023/10/03 02:30:34;;;;;;;;;;;;;;;;;;5111822;28;19916;-58
2023/10/03 02:33:12;;;;;;;;;;;;;;;;;;5113183;28;20389;-59
2023/10/03 02:35:38;;;;;;;;;;;;;;;;;;5114381;28;19916;-60
2023/10/03 02:38:04;;;;;;;;;;;;;;;;;;5114397;28;19912;-58
2023/10/03 02:40:32;;;;;;;;;;;;;;;;;;5114259;28;19941;-59
2023/10/03 02:42:59;;;;;;;;;;;;;;;;;;5097220;28;20300;-59
2023/10/03 02:45:26;;;;;;;;;;;;;;;;;;5097179;28;19924;-58
2023/10/03 02:47:56;;;;;;;;;;;;;;;;;;5113990;28;19912;-59
2023/10/03 02:50:23;;;;;;;;;;;;;;;;;;5085777;28;20011;-57
2023/10/03 02:52:49;;;;;;;;;;;;;;;;;;5065314;28;20387;-58
2023/10/03 02:55:16;;;;;;;;;;;;;;;;;;5067295;28;20015;-58
2023/10/03 02:57:42;;;;;;;;;;;;;;;;;;5083170;28;19919;-59
2023/10/03 03:00:16;;;;;;;;;;;;;;;;;;5083287;28;20375;-59
2023/10/03 03:02:47;;;;;;;;;;;;;;;;;;5073125;28;19960;-58
2023/10/03 03:05:17;;;;;;;;;;;;;;;;;;5073111;28;19951;-59
2023/10/03 03:07:42;;;;;;;;;;;;;;;;;;5074611;28;19913;-57
2023/10/03 03:10:08;;;;;;;;;;;;;;;;;;5073079;28;20427;-58
2023/10/03 03:12:37;;;;;;;;;;;;;;;;;;5073092;28;19928;-58
2023/10/03 03:15:05;;;;;;;;;;;;;;;;;;5073741;28;19916;-58
2023/10/03 03:17:30;;;;;;;;;;;;;;;;;;5074390;28;20008;-57
2023/10/03 03:19:56;;;;;;;;;;;;;;;;;;5073014;28;19955;-59
2023/10/03 03:22:22;;;;;;;;;;;;;;;;;;5074209;28;20006;-58
2023/10/03 03:24:51;;;;;;;;;;;;;;;;;;5072809;28;20018;-59
2023/10/03 03:27:17;;;;;;;;;;;;;;;;;;5090734;28;19915;-58
2023/10/03 03:30:09;;;;;;;;;;;;;;;;;;5114859;28;19916;-59
2023/10/03 03:32:29;;;;;;;;;;;;;;;;;;5114568;28;20064;-58
2023/10/03 03:34:54;;;;;;;;;;;;;;;;;;5103700;28;19989;-60
2023/10/03 03:37:23;;;;;;;;;;;;;;;;;;5094271;28;19916;-58
2023/10/03 03:39:56;;;;;;;;;;;;;;;;;;5093987;28;19916;-58
2023/10/03 03:42:22;;;;;;;;;;;;;;;;;;5075974;28;20051;-56
2023/10/03 03:44:47;;;;;;;;;;;;;;;;;;5084254;28;20393;-58
2023/10/03 03:47:12;;;;;;;;;;;;;;;;;;5077480;28;20111;-59
2023/10/03 03:49:39;;;;;;;;;;;;;;;;;;5071155;28;19978;-60
2023/10/03 03:52:06;;;;;;;;;;;;;;;;;;5073691;28;20369;-59
2023/10/03 03:54:31;;;;;;;;;;;;;;;;;;5072100;28;20389;-59
2023/10/03 03:56:56;;;;;;;;;;;;;;;;;;5073803;28;19927;-59
2023/10/03 03:59:22;;;;;;;;;;;;;;;;;;5055287;28;19923;-58
2023/10/03 04:01:49;;;;;;;;;;;;;;;;;;5073209;28;19919;-58
2023/10/03 04:04:16;;;;;;;;;;;;;;;;;;5073512;28;19916;-57
2023/10/03 04:06:42;;;;;;;;;;;;;;;;;;5073355;28;20378;-59
2023/10/03 04:09:09;;;;;;;;;;;;;;;;;;5072851;28;19939;-57
2023/10/03 04:11:34;;;;;;;;;;;;;;;;;;5073010;28;19931;-59
2023/10/03 04:14:01;;;;;;;;;;;;;;;;;;5072802;28;20412;-58
2023/10/03 04:16:28;;;;;;;;;;;;;;;;;;5072913;28;19912;-60
2023/10/03 04:18:53;;;;;;;;;;;;;;;;;;5072728;28;19922;-59
2023/10/03 04:21:26;;;;;;;;;;;;;;;;;;5074013;28;19908;-59
2023/10/03 04:23:53;;;;;;;;;;;;;;;;;;5082250;28;20039;-57
2023/10/03 04:26:19;;;;;;;;;;;;;;;;;;5081990;28;20084;-57
2023/10/03 04:28:44;;;;;;;;;;;;;;;;;;5084230;28;19920;-59
2023/10/03 04:31:10;;;;;;;;;;;;;;;;;;5081450;28;20274;-59
2023/10/03 04:33:36;;;;;;;;;;;;;;;;;;5082019;28;19920;-59
2023/10/03 04:36:05;;;;;;;;;;;;;;;;;;5080729;28;19977;-59
2023/10/03 04:38:31;;;;;;;;;;;;;;;;;;5063663;28;19969;-59
2023/10/03 04:40:57;;;;;;;;;;;;;;;;;;5087088;28;19912;-59
2023/10/03 04:43:22;;;;;;;;;;;;;;;;;;5092858;28;19911;-59
2023/10/03 04:45:47;;;;;;;;;;;;;;;;;;5092716;28;20113;-59
2023/10/03 04:48:13;;;;;;;;;;;;;;;;;;5092917;28;19971;-63
2023/10/03 04:50:39;;;;;;;;;;;;;;;;;;5092413;28;19951;-60
2023/10/03 04:53:07;;;;;;;;;;;;;;;;;;5092854;28;20403;-58
2023/10/03 04:55:32;;;;;;;;;;;;;;;;;;5082798;28;19916;-59
2023/10/03 04:57:58;;;;;;;;;;;;;;;;;;5080700;28;19912;-59
2023/10/03 05:00:23;;;;;;;;;;;;;;;;;;5083273;28;19916;-59
2023/10/03 05:02:48;;;;;;;;;;;;;;;;;;5081696;28;19912;-59
2023/10/03 05:05:14;;;;;;;;;;;;;;;;;;5081538;28;19923;-58
2023/10/03 05:07:39;;;;;;;;;;;;;;;;;;5079982;28;20018;-58
2023/10/03 05:10:05;;;;;;;;;;;;;;;;;;5081770;28;19971;-59
2023/10/03 05:12:31;;;;;;;;;;;;;;;;;;5081044;28;19963;-60
2023/10/03 05:14:56;;;;;;;;;;;;;;;;;;5082665;28;19915;-61
2023/10/03 05:17:23;;;;;;;;;;;;;;;;;;5081103;28;19916;-61
2023/10/03 05:19:49;;;;;;;;;;;;;;;;;;5081047;28;19920;-62
2023/10/03 05:22:15;;;;;;;;;;;;;;;;;;5082564;28;20451;-59
2023/10/03 05:24:40;;;;;;;;;;;;;;;;;;5084261;28;20399;-60
2023/10/03 05:27:07;;;;;;;;;;;;;;;;;;5098697;28;19911;-60
2023/10/03 05:29:32;;;;;;;;;;;;;;;;;;5091378;28;19916;-61
2023/10/03 05:32:00;;;;;;;;;;;;;;;;;;5070514;28;19917;-61
2023/10/03 05:34:25;;;;;;;;;;;;;;;;;;5083146;28;20361;-59
2023/10/03 05:36:50;;;;;;;;;;;;;;;;;;5091709;28;19954;-57
2023/10/03 05:39:16;;;;;;;;;;;;;;;;;;5090991;28;19951;-57
2023/10/03 05:41:41;;;;;;;;;;;;;;;;;;5091015;28;19911;-60
2023/10/03 05:44:11;;;;;;;;;;;;;;;;;;5091365;28;20269;-61
2023/10/03 05:46:36;;;;;;;;;;;;;;;;;;5091037;28;19931;-60
2023/10/03 05:49:03;;;;;;;;;;;;;;;;;;5073114;28;19927;-62
2023/10/03 05:51:29;;;;;;;;;;;;;;;;;;5081500;28;19911;-61
2023/10/03 05:53:54;;;;;;;;;;;;;;;;;;5079181;28;19916;-61
2023/10/03 05:56:19;;;;;;;;;;;;;;;;;;5078954;28;19980;-59
2023/10/03 05:58:45;;;;;;;;;;;;;;;;;;5081571;28;19920;-58
2023/10/03 06:01:12;;;;;;;;;;;;;;;;;;5078528;28;19919;-60
2023/10/03 06:03:38;;;;;;;;;;;;;;;;;;5062479;28;20013;-60
2023/10/03 06:06:03;;;;;;;;;;;;;;;;;;5079661;28;20129;-61
2023/10/03 06:08:32;;;;;;;;;;;;;;;;;;5083620;28;20014;-60
2023/10/03 06:10:57;;;;;;;;;;;;;;;;;;5083243;28;19912;-60
2023/10/03 06:13:23;;;;;;;;;;;;;;;;;;5085838;28;20010;-59
2023/10/03 06:15:48;;;;;;;;;;;;;;;;;;5081225;28;19943;-60
2023/10/03 06:18:14;;;;;;;;;;;;;;;;;;5082950;28;19970;-59
2023/10/03 06:20:39;;;;;;;;;;;;;;;;;;5083705;28;19927;-61
2023/10/03 06:23:04;;;;;;;;;;;;;;;;;;5086030;28;19912;-61
2023/10/03 06:25:30;;;;;;;;;;;;;;;;;;5083585;28;20344;-61
2023/10/03 06:27:56;;;;;;;;;;;;;;;;;;5085822;28;19920;-58
2023/10/03 06:30:22;;;;;;;;;;;;;;;;;;5083195;28;19965;-60
2023/10/03 06:32:47;;;;;;;;;;;;;;;;;;5077335;28;19924;-58
2023/10/03 06:35:12;;;;;;;;;;;;;;;;;;5074519;28;19917;-59
2023/10/03 06:37:38;;;;;;;;;;;;;;;;;;5077822;28;19912;-60
2023/10/03 06:40:09;;;;;;;;;;;;;;;;;;5083489;28;19923;-61
2023/10/03 06:42:34;;;;;;;;;;;;;;;;;;5083776;28;20353;-60
2023/10/03 06:45:00;;;;;;;;;;;;;;;;;;5081311;28;19945;-60
2023/10/03 06:47:25;;;;;;;;;;;;;;;;;;5083393;28;19920;-58
2023/10/03 06:49:51;;;;;;;;;;;;;;;;;;5083361;28;20274;-59
2023/10/03 06:52:16;;;;;;;;;;;;;;;;;;5082693;28;19930;-57
2023/10/03 06:54:42;;;;;;;;;;;;;;;;;;5084291;28;19916;-57
2023/10/03 06:57:07;;;;;;;;;;;;;;;;;;5065008;28;19919;-58
2023/10/03 06:59:33;;;;;;;;;;;;;;;;;;5082391;28;20020;-59
2023/10/03 07:01:59;;;;;;;;;;;;;;;;;;5092027;28;20328;-59
2023/10/03 07:04:25;;;;;;;;;;;;;;;;;;5094162;28;19988;-58
2023/10/03 07:06:50;;;;;;;;;;;;;;;;;;5094645;28;19962;-59
2023/10/03 07:09:16;;;;;;;;;;;;;;;;;;5075777;28;20102;-58
2023/10/03 07:11:42;;;;;;;;;;;;;;;;;;5093942;28;19927;-59
2023/10/03 07:14:08;;;;;;;;;;;;;;;;;;5093775;28;19912;-57
2023/10/03 07:16:34;;;;;;;;;;;;;;;;;;5092441;28;19958;-58
2023/10/03 07:18:59;;;;;;;;;;;;;;;;;;5092937;28;19916;-57
2023/10/03 07:21:25;;;;;;;;;;;;;;;;;;5093689;28;20400;-57
2023/10/03 07:23:53;;;;;;;;;;;;;;;;;;5093784;28;20401;-59
2023/10/03 07:26:18;;;;;;;;;;;;;;;;;;5093276;28;19912;-59
2023/10/03 07:28:43;;;;;;;;;;;;;;;;;;5083591;28;19923;-59
2023/10/03 07:31:09;;;;;;;;;;;;;;;;;;5081659;28;19912;-59
2023/10/03 07:33:35;;;;;;;;;;;;;;;;;;5081274;28;20019;-57
2023/10/03 07:36:02;;;;;;;;;;;;;;;;;;5081502;28;19916;-58
2023/10/03 07:38:28;;;;;;;;;;;;;;;;;;5082699;28;19916;-59
2023/10/03 07:40:53;;;;;;;;;;;;;;;;;;5085408;28;19912;-59
2023/10/03 07:43:19;;;;;;;;;;;;;;;;;;5082994;28;20293;-58
2023/10/03 07:45:44;;;;;;;;;;;;;;;;;;5082109;28;20019;-59
2023/10/03 07:48:10;;;;;;;;;;;;;;;;;;5084072;28;19924;-60
2023/10/03 07:50:35;;;;;;;;;;;;;;;;;;5082628;28;19916;-61
2023/10/03 07:53:01;;;;;;;;;;;;;;;;;;5083123;28;19920;-59
2023/10/03 07:55:26;;;;;;;;;;;;;;;;;;5082168;28;19923;-58
2023/10/03 07:57:54;;;;;;;;;;;;;;;;;;5081910;28;19912;-58
2023/10/03 08:00:20;;;;;;;;;;;;;;;;;;5083514;28;20586;-59
2023/10/03 08:02:46;;;;;;;;;;;;;;;;;;5087175;28;20007;-59
2023/10/03 08:05:11;;;;;;;;;;;;;;;;;;5083244;28;19916;-56
2023/10/03 08:07:38;;;;;;;;;;;;;;;;;;5086306;28;19913;-60
2023/10/03 08:10:04;;;;;;;;;;;;;;;;;;5082920;28;20399;-61
2023/10/03 08:12:31;;;;;;;;;;;;;;;;;;5080969;28;19920;-60
2023/10/03 08:14:57;;;;;;;;;;;;;;;;;;5072590;28;20031;-59
2023/10/03 08:17:31;;;;;;;;;;;;;;;;;;5073083;28;20421;-60
2023/10/03 08:19:56;;;;;;;;;;;;;;;;;;5076171;28;19916;-61
2023/10/03 08:22:21;;;;;;;;;;;;;;;;;;5072780;28;19962;-62
2023/10/03 08:24:47;;;;;;;;;;;;;;;;;;5066701;28;20399;-63
2023/10/03 08:27:18;;;;;;;;;;;;;;;;;;5098640;28;20280;-61
2023/10/03 08:29:43;;;;;;;;;;;;;;;;;;5087808;28;19916;-60
2023/10/03 08:32:09;;;;;;;;;;;;;;;;;;5069380;28;19927;-60
2023/10/03 08:34:43;;;;;;;;;;;;;;;;;;5062777;28;19963;-64
2023/10/03 08:37:18;;;;;;;;;;;;;;;;;;5078101;28;19912;-61
2023/10/03 08:39:45;;;;;;;;;;;;;;;;;;5082753;28;19923;-60
2023/10/03 08:42:13;;;;;;;;;;;;;;;;;;5073976;28;19912;-61
2023/10/03 08:44:38;;;;;;;;;;;;;;;;;;5090971;28;19935;-60
2023/10/03 08:47:09;;;;;;;;;;;;;;;;;;5092823;28;19920;-62
2023/10/03 08:49:38;;;;;;;;;;;;;;;;;;5090974;28;20332;-62
2023/10/03 08:52:03;;;;;;;;;;;;;;;;;;5092324;28;19920;-62
2023/10/03 08:54:36;;;;;;;;;;;;;;;;;;5090785;28;20057;-61
2023/10/03 08:57:01;;;;;;;;;;;;;;;;;;5092619;28;19919;-62
2023/10/03 08:59:30;;;;;;;;;;;;;;;;;;5092093;28;20360;-63
2023/10/03 09:01:58;;;;;;;;;;;;;;;;;;5090856;28;19912;-63
2023/10/03 09:04:23;;;;;;;;;;;;;;;;;;5092197;28;19916;-63
2023/10/03 09:06:50;;;;;;;;;;;;;;;;;;5092388;28;19919;-62
2023/10/03 09:09:16;;;;;;;;;;;;;;;;;;5091855;28;19916;-62
2023/10/03 09:11:42;;;;;;;;;;;;;;;;;;5092043;28;19965;-61
2023/10/03 09:14:07;;;;;;;;;;;;;;;;;;5084981;28;19916;-61
2023/10/03 09:16:38;;;;;;;;;;;;;;;;;;5071511;28;19912;-61
2023/10/03 09:19:04;;;;;;;;;;;;;;;;;;5071794;28;20434;-62
2023/10/03 09:21:29;;;;;;;;;;;;;;;;;;5071703;28;19912;-62
2023/10/03 09:24:15;;;;;;;;;;;;;;;;;;5071713;28;19919;-62
2023/10/03 09:26:46;;;;;;;;;;;;;;;;;;5073620;28;19916;-62
2023/10/03 09:29:11;;;;;;;;;;;;;;;;;;5084451;28;20424;-61
2023/10/03 09:31:37;;;;;;;;;;;;;;;;;;5053821;28;20018;-62
2023/10/03 09:34:02;;;;;;;;;;;;;;;;;;5069861;28;19969;-61
2023/10/03 09:36:28;;;;;;;;;;;;;;;;;;5071594;28;19919;-61
2023/10/03 09:38:55;;;;;;;;;;;;;;;;;;5069627;28;19917;-62
2023/10/03 09:41:24;;;;;;;;;;;;;;;;;;5069822;28;19989;-61
2023/10/03 09:43:49;;;;;;;;;;;;;;;;;;5070907;28;20433;-63
2023/10/03 09:46:23;;;;;;;;;;;;;;;;;;5070363;28;19966;-62
2023/10/03 09:48:53;;;;;;;;;;;;;;;;;;5069984;28;20317;-60
2023/10/03 09:51:18;;;;;;;;;;;;;;;;;;5071232;28;19912;-62
2023/10/03 09:53:43;;;;;;;;;;;;;;;;;;5071164;28;19933;-62
2023/10/03 09:56:09;;;;;;;;;;;;;;;;;;5071247;28;19985;-61
2023/10/03 09:58:34;;;;;;;;;;;;;;;;;;5087235;28;20325;-62
2023/10/03 10:00:59;;;;;;;;;;;;;;;;;;5071354;28;19987;-62
2023/10/03 10:03:28;;;;;;;;;;;;;;;;;;5069807;28;19981;-61
2023/10/03 10:05:53;;;;;;;;;;;;;;;;;;5071276;28;20037;-63
2023/10/03 10:08:18;;;;;;;;;;;;;;;;;;5071611;28;19964;-62
2023/10/03 10:10:44;;;;;;;;;;;;;;;;;;5071039;28;19919;-61
2023/10/03 10:13:12;;;;;;;;;;;;;;;;;;5069693;28;19981;-59
2023/10/03 10:15:37;;;;;;;;;;;;;;;;;;5071064;28;19935;-59
2023/10/03 10:18:10;;;;;;;;;;;;;;;;;;5071391;28;20011;-59
2023/10/03 10:20:40;;;;;;;;;;;;;;;;;;5071263;28;19930;-60
2023/10/03 10:23:13;;;;;;;;;;;;;;;;;;5050577;28;19912;-59
2023/10/03 10:25:56;;;;;;;;;;;;;;;;;;5071094;28;19970;-58
2023/10/03 10:28:22;;;;;;;;;;;;;;;;;;5088452;28;19939;-58
2023/10/03 10:30:47;;;;;;;;;;;;;;;;;;5090099;28;20377;-60
2023/10/03 10:33:12;;;;;;;;;;;;;;;;;;5070618;28;19924;-58
2023/10/03 10:35:38;;;;;;;;;;;;;;;;;;5071105;28;19924;-59
2023/10/03 10:38:06;;;;;;;;;;;;;;;;;;5070733;28;19943;-59
2023/10/03 10:40:35;;;;;;;;;;;;;;;;;;5070772;28;19917;-58
2023/10/03 10:43:00;;;;;;;;;;;;;;;;;;5069443;28;20023;-56
2023/10/03 10:45:26;;;;;;;;;;;;;;;;;;5069360;28;20062;-58
2023/10/03 10:47:51;;;;;;;;;;;;;;;;;;5076106;28;20081;-59
2023/10/03 10:50:17;;;;;;;;;;;;;;;;;;5070653;28;19936;-59
2023/10/03 10:52:42;;;;;;;;;;;;;;;;;;5070559;28;19924;-58
2023/10/03 10:55:08;;;;;;;;;;;;;;;;;;5073748;28;19923;-59
2023/10/03 10:57:33;;;;;;;;;;;;;;;;;;5073869;28;19919;-60
2023/10/03 10:59:58;;;;;;;;;;;;;;;;;;5072833;28;19962;-60
2023/10/03 11:02:26;;;;;;;;;;;;;;;;;;5072479;28;19913;-59
2023/10/03 11:04:51;;;;;;;;;;;;;;;;;;5072764;28;19913;-59
2023/10/03 11:07:16;;;;;;;;;;;;;;;;;;5073750;28;19912;-58
2023/10/03 11:09:45;;;;;;;;;;;;;;;;;;5056356;28;19939;-58
2023/10/03 11:12:11;;;;;;;;;;;;;;;;;;5039105;28;19977;-60
2023/10/03 11:14:36;;;;;;;;;;;;;;;;;;5073940;28;19912;-62
2023/10/03 11:17:02;;;;;;;;;;;;;;;;;;5073912;28;19912;-58
2023/10/03 11:19:30;;;;;;;;;;;;;;;;;;5074040;28;19916;-59
2023/10/03 11:21:55;;;;;;;;;;;;;;;;;;5055922;28;19916;-58
2023/10/03 11:24:21;;;;;;;;;;;;;;;;;;5072545;28;20457;-56
2023/10/03 11:26:46;;;;;;;;;;;;;;;;;;5063463;28;19912;-59
2023/10/03 11:29:14;;;;;;;;;;;;;;;;;;5114370;28;20402;-60
2023/10/03 11:31:40;;;;;;;;;;;;;;;;;;5098227;28;19923;-60
2023/10/03 11:34:06;;;;;;;;;;;;;;;;;;5073356;28;19927;-59
2023/10/03 11:36:31;;;;;;;;;;;;;;;;;;5073489;28;19912;-60
2023/10/03 11:38:56;;;;;;;;;;;;;;;;;;5073563;28;19962;-58
2023/10/03 11:41:22;;;;;;;;;;;;;;;;;;5073258;28;19919;-60
2023/10/03 11:43:49;;;;;;;;;;;;;;;;;;5038954;28;19916;-59
2023/10/03 11:46:15;;;;;;;;;;;;;;;;;;5072944;28;20688;-58
2023/10/03 11:48:41;;;;;;;;;;;;;;;;;;5073398;28;19974;-59
2023/10/03 11:51:06;;;;;;;;;;;;;;;;;;5072351;28;19912;-59
2023/10/03 11:53:31;;;;;;;;;;;;;;;;;;5073174;28;19970;-56
2023/10/03 11:55:57;;;;;;;;;;;;;;;;;;5073460;28;19935;-57
2023/10/03 11:58:27;;;;;;;;;;;;;;;;;;5050942;28;20366;-58
2023/10/03 12:00:53;;;;;;;;;;;;;;;;;;5073202;28;19966;-59
2023/10/03 12:03:19;;;;;;;;;;;;;;;;;;5092646;28;19912;-59
2023/10/03 12:05:46;;;;;;;;;;;;;;;;;;5092428;28;19912;-59
2023/10/03 12:08:11;;;;;;;;;;;;;;;;;;5092084;28;19962;-57
2023/10/03 12:10:37;;;;;;;;;;;;;;;;;;5093046;28;19916;-58
2023/10/03 12:13:02;;;;;;;;;;;;;;;;;;5091600;28;20396;-58
2023/10/03 12:15:28;;;;;;;;;;;;;;;;;;5092767;28;19923;-61
2023/10/03 12:17:53;;;;;;;;;;;;;;;;;;5092590;28;19908;-61
2023/10/03 12:20:18;;;;;;;;;;;;;;;;;;5091544;28;19923;-57
2023/10/03 12:22:44;;;;;;;;;;;;;;;;;;5092473;28;20343;-60
2023/10/03 12:25:09;;;;;;;;;;;;;;;;;;5090284;28;19942;-61
2023/10/03 12:27:35;;;;;;;;;;;;;;;;;;5094102;28;20335;-58
2023/10/03 12:30:04;;;;;;;;;;;;;;;;;;5088220;28;19919;-56
2023/10/03 12:32:29;;;;;;;;;;;;;;;;;;5080674;28;19926;-59
2023/10/03 12:34:54;;;;;;;;;;;;;;;;;;5080653;28;20316;-56
2023/10/03 12:37:20;;;;;;;;;;;;;;;;;;5091913;28;20354;-57
2023/10/03 12:39:45;;;;;;;;;;;;;;;;;;5092581;28;19916;-58
2023/10/03 12:42:12;;;;;;;;;;;;;;;;;;5089232;28;19916;-56
2023/10/03 12:44:38;;;;;;;;;;;;;;;;;;5079561;28;19916;-55
2023/10/03 12:47:04;;;;;;;;;;;;;;;;;;5074608;28;19927;-59
2023/10/03 12:49:30;;;;;;;;;;;;;;;;;;5071268;28;19928;-58
2023/10/03 12:51:57;;;;;;;;;;;;;;;;;;5085784;28;19938;-59
2023/10/03 12:54:24;;;;;;;;;;;;;;;;;;5091172;28;19931;-59
2023/10/03 12:56:49;;;;;;;;;;;;;;;;;;5085980;28;19912;-59
2023/10/03 12:59:15;;;;;;;;;;;;;;;;;;5092598;28;19938;-60
2023/10/03 13:01:40;;;;;;;;;;;;;;;;;;5091841;28;20382;-60
2023/10/03 13:04:05;;;;;;;;;;;;;;;;;;5092517;28;20007;-59
2023/10/03 13:06:31;;;;;;;;;;;;;;;;;;5091247;28;20013;-60
2023/10/03 13:08:56;;;;;;;;;;;;;;;;;;5090886;28;19916;-58
2023/10/03 13:11:22;;;;;;;;;;;;;;;;;;5090674;28;19915;-59
2023/10/03 13:13:49;;;;;;;;;;;;;;;;;;5091600;28;19920;-59
2023/10/03 13:16:15;;;;;;;;;;;;;;;;;;5089878;28;19912;-59
2023/10/03 13:18:41;;;;;;;;;;;;;;;;;;5091869;28;20399;-58
2023/10/03 13:21:06;;;;;;;;;;;;;;;;;;5090261;28;19912;-59
2023/10/03 13:23:33;;;;;;;;;;;;;;;;;;5091917;28;19938;-60
2023/10/03 13:25:58;;;;;;;;;;;;;;;;;;5091412;28;20352;-62
2023/10/03 13:28:25;;;;;;;;;;;;;;;;;;5098721;28;19978;-60
2023/10/03 13:30:50;;;;;;;;;;;;;;;;;;5080062;28;19911;-59
2023/10/03 13:33:15;;;;;;;;;;;;;;;;;;5080627;28;19927;-63
2023/10/03 13:35:41;;;;;;;;;;;;;;;;;;5080165;28;19916;-59
2023/10/03 13:38:07;;;;;;;;;;;;;;;;;;5045578;28;19912;-58
2023/10/03 13:40:32;;;;;;;;;;;;;;;;;;5080554;28;20446;-59
2023/10/03 13:42:59;;;;;;;;;;;;;;;;;;5078318;28;20300;-60
2023/10/03 13:45:25;;;;;;;;;;;;;;;;;;5080222;28;19916;-57
2023/10/03 13:47:51;;;;;;;;;;;;;;;;;;5081739;28;19924;-57
2023/10/03 13:50:17;;;;;;;;;;;;;;;;;;5079462;28;19923;-59
2023/10/03 13:52:42;;;;;;;;;;;;;;;;;;5081179;28;19915;-58
2023/10/03 13:55:09;;;;;;;;;;;;;;;;;;5081158;28;19924;-60
2023/10/03 13:57:34;;;;;;;;;;;;;;;;;;5078036;28;19909;-58
2023/10/03 14:00:01;;;;;;;;;;;;;;;;;;5081362;28;19916;-58
2023/10/03 14:02:26;;;;;;;;;;;;;;;;;;5081176;28;20337;-58
2023/10/03 14:04:52;;;;;;;;;;;;;;;;;;5078289;28;19912;-58
2023/10/03 14:07:17;;;;;;;;;;;;;;;;;;5079919;28;19934;-59
2023/10/03 14:09:42;;;;;;;;;;;;;;;;;;5081489;28;20065;-57
2023/10/03 14:12:08;;;;;;;;;;;;;;;;;;5079989;28;20011;-59
2023/10/03 14:14:33;;;;;;;;;;;;;;;;;;5078841;28;19916;-59
2023/10/03 14:17:00;;;;;;;;;;;;;;;;;;5081774;28;19916;-58
2023/10/03 14:19:25;;;;;;;;;;;;;;;;;;5079714;28;20309;-57
2023/10/03 14:21:51;;;;;;;;;;;;;;;;;;5080771;28;19912;-58
2023/10/03 14:24:16;;;;;;;;;;;;;;;;;;5081258;28;19923;-59
2023/10/03 14:26:41;;;;;;;;;;;;;;;;;;5081412;28;19919;-61
2023/10/03 14:29:07;;;;;;;;;;;;;;;;;;5089923;28;19916;-59
2023/10/03 14:31:32;;;;;;;;;;;;;;;;;;5093543;28;20304;-60
2023/10/03 14:33:57;;;;;;;;;;;;;;;;;;5093760;28;20010;-58
2023/10/03 14:36:23;;;;;;;;;;;;;;;;;;5093356;28;19912;-59
2023/10/03 14:38:49;;;;;;;;;;;;;;;;;;5093802;28;19916;-58
2023/10/03 14:41:15;;;;;;;;;;;;;;;;;;5094627;28;19918;-59
2023/10/03 14:43:41;;;;;;;;;;;;;;;;;;5089375;28;19920;-61
2023/10/03 14:46:06;;;;;;;;;;;;;;;;;;5084257;28;19991;-59
2023/10/03 14:48:32;;;;;;;;;;;;;;;;;;5081528;28;19968;-60
2023/10/03 14:50:57;;;;;;;;;;;;;;;;;;5083888;28;19912;-59
2023/10/03 14:53:22;;;;;;;;;;;;;;;;;;5082425;28;20014;-58
2023/10/03 14:55:48;;;;;;;;;;;;;;;;;;5077040;28;20015;-60
2023/10/03 14:58:14;;;;;;;;;;;;;;;;;;5084943;28;19947;-61
2023/10/03 15:00:41;;;;;;;;;;;;;;;;;;5083575;28;19920;-60
2023/10/03 15:03:06;;;;;;;;;;;;;;;;;;5084081;28;19912;-59
2023/10/03 15:05:32;;;;;;;;;;;;;;;;;;5074933;28;19916;-59
2023/10/03 15:07:57;;;;;;;;;;;;;;;;;;5073912;28;19923;-60
2023/10/03 15:10:22;;;;;;;;;;;;;;;;;;5073756;28;19916;-60
2023/10/03 15:12:48;;;;;;;;;;;;;;;;;;5076258;28;20013;-59
2023/10/03 15:15:13;;;;;;;;;;;;;;;;;;5084358;28;19916;-59
2023/10/03 15:17:38;;;;;;;;;;;;;;;;;;5081785;28;20365;-59
2023/10/03 15:20:05;;;;;;;;;;;;;;;;;;5072605;28;19916;-59
2023/10/03 15:22:31;;;;;;;;;;;;;;;;;;5073934;28;20351;-59
2023/10/03 15:24:57;;;;;;;;;;;;;;;;;;5073835;28;20396;-59
2023/10/03 15:27:22;;;;;;;;;;;;;;;;;;5077486;28;19913;-60
2023/10/03 15:29:48;;;;;;;;;;;;;;;;;;5073891;28;19958;-59
2023/10/03 15:32:13;;;;;;;;;;;;;;;;;;5073016;28;20361;-58
2023/10/03 15:34:40;;;;;;;;;;;;;;;;;;5073815;28;19923;-61
2023/10/03 15:37:07;;;;;;;;;;;;;;;;;;5078519;28;19934;-58
2023/10/03 15:39:32;;;;;;;;;;;;;;;;;;5083256;28;19935;-58
2023/10/03 15:41:58;;;;;;;;;;;;;;;;;;5082577;28;20373;-61
2023/10/03 15:44:23;;;;;;;;;;;;;;;;;;5083099;28;19912;-59
2023/10/03 15:46:49;;;;;;;;;;;;;;;;;;5082971;28;19919;-60
2023/10/03 15:49:15;;;;;;;;;;;;;;;;;;5081545;28;19931;-59
2023/10/03 15:51:40;;;;;;;;;;;;;;;;;;5082783;28;19916;-59
2023/10/03 15:54:05;;;;;;;;;;;;;;;;;;5061148;28;20378;-60
2023/10/03 15:56:31;;;;;;;;;;;;;;;;;;5072208;28;20058;-60
2023/10/03 15:58:57;;;;;;;;;;;;;;;;;;5071388;28;19916;-61
2023/10/03 16:01:23;;;;;;;;;;;;;;;;;;5056073;28;19912;-60
2023/10/03 16:03:48;;;;;;;;;;;;;;;;;;5081096;28;19923;-60
2023/10/03 16:06:13;;;;;;;;;;;;;;;;;;5088907;28;20385;-59
2023/10/03 16:08:39;;;;;;;;;;;;;;;;;;5088751;28;20342;-58
2023/10/03 16:11:04;;;;;;;;;;;;;;;;;;5075724;28;19916;-59
2023/10/03 16:13:31;;;;;;;;;;;;;;;;;;5082848;28;20389;-59
2023/10/03 16:15:56;;;;;;;;;;;;;;;;;;5081608;28;19988;-61
2023/10/03 16:18:22;;;;;;;;;;;;;;;;;;5082484;28;20407;-59
2023/10/03 16:20:48;;;;;;;;;;;;;;;;;;5083087;28;19923;-59
2023/10/03 16:23:13;;;;;;;;;;;;;;;;;;5079913;28;19942;-60
2023/10/03 16:25:39;;;;;;;;;;;;;;;;;;5077399;28;19919;-59
2023/10/03 16:28:04;;;;;;;;;;;;;;;;;;5081871;28;19919;-60
2023/10/03 16:30:30;;;;;;;;;;;;;;;;;;5082474;28;20296;-58
2023/10/03 16:32:58;;;;;;;;;;;;;;;;;;5081202;28;20372;-60
2023/10/03 16:35:24;;;;;;;;;;;;;;;;;;5083434;28;19912;-60
2023/10/03 16:37:50;;;;;;;;;;;;;;;;;;5079541;28;19919;-59
2023/10/03 16:40:16;;;;;;;;;;;;;;;;;;5080221;28;19923;-59